Vanderbilt, MI

7:48 PM EDT on July 29, 2015 (GMT -0400)
Bows Lake | | Change Station
CLOSE
Current Station
Personal Weather Station
Location: Vanderbilt, MI
Elevation: 1202 ft
Nearby Weather Stations

Elev 1202 ft 45.15 °N, 84.77 °W | Updated 32 seconds ago

Clear
Clear
78.9 °F
Feels Like 79 °F
N
7.3
Wind Variable Wind from SW
Gusts 17.4 mph

Today
High -- | Low -- °F
--% Chance of Precip.
Yesterday
High -- | Low -- °F
Precip. -- in
6:19 AM 9:09 PM
Waxing Gibbous, 97% visible
Pressure 29.82 in
Visibility 10.0 miles
Clouds Clear
Heat Index 79 °F
Dew Point 52 °F
Humidity 40%
Rainfall 0.00 in
Snow Depth Not available.
UV 2 out of 12
Pollen 5.20 out of 12
Air Quality Not available.
Flu Activity Not available.
METAR KGLR 292253Z AUTO 25019G26KT 10SM CLR 28/09 A2985 RMK AO2 PK WND 25030/2215 SLP098 T02780089

More Conditions Fewer Conditions

Pressure 29.82 in
Visibility 10.0 miles
Clouds Clear
Heat Index 79 °F
Dew Point 52 °F
Humidity 40%
Rainfall 0.00 in
Snow Depth Not available.
UV 2 out of 12
Pollen 5.20 out of 12
Air Quality Not available.
Flu Activity Not available.
METAR KGLR 292253Z AUTO 25019G26KT 10SM CLR 28/09 A2985 RMK AO2 PK WND 25030/2215 SLP098 T02780089

More Conditions Fewer Conditions

Nowcast | as of 6:00 PM EDT on July 29, 2015

At 7 PM...clear. Temperature 80. West winds 15 mph. At 9 PM...clear. Temperature 74. West winds 13 mph. At 11 PM...mostly clear. Temperature 68. West winds 8 mph. At 1 am...mostly clear. Temperature 66. West winds 7 mph.

×

10-Day Weather Forecast

×

Almanac

Astronomy

Jul. 29, 2015 Rise Set
Actual Time
Civil Twilight
Nautical Twilight
Astronomical Twilight
Moon
Length of Visible Light
Length of Day
Tomorrow will be .
, % of the Moon is Illuminated

Today's Extremes

State Highs State Lows

Community

WunderPhotos

Upload Photos

1,842,196 photos uploaded!

WunderBlogs® & News

Nearby

Air Quality

  Air Quality AQ Index Pollutant
Not available.

Snow Depth

Station Depth Elevation

Earthquake Activity

City Distance Mag. Time & Date
Minimum magnitude displayed is 2.5.

Coastal Water Temperatures

Place Temperature

Stations

Nearby Weather Stations

Station Location Temp. Windchill Dew Point Humidity Wind Precip. Elev Updated Type